sensor_id;sensor_type;location;lat;lon;timestamp;temperature;humidity
21772;DHT22;11047;47.904;8.110;2023-10-19T00:00:48;12.00;99.90
21772;DHT22;11047;47.904;8.110;2023-10-19T00:03:16;12.00;99.90
21772;DHT22;11047;47.904;8.110;2023-10-19T00:05:43;12.10;99.90
21772;DHT22;11047;47.904;8.110;2023-10-19T00:08:12;12.20;99.90
21772;DHT22;11047;47.904;8.110;2023-10-19T00:10:47;12.30;99.90
21772;DHT22;11047;47.904;8.110;2023-10-19T00:13:15;12.30;99.90
21772;DHT22;11047;47.904;8.110;2023-10-19T00:15:44;12.40;99.90
21772;DHT22;11047;47.904;8.110;2023-10-19T00:18:14;12.40;99.90
21772;DHT22;11047;47.904;8.110;2023-10-19T00:20:48;12.40;99.90
21772;DHT22;11047;47.904;8.110;2023-10-19T00:23:20;12.40;99.90
21772;DHT22;11047;47.904;8.110;2023-10-19T00:25:55;12.30;99.90
21772;DHT22;11047;47.904;8.110;2023-10-19T00:28:21;12.30;99.90
21772;DHT22;11047;47.904;8.110;2023-10-19T00:30:51;12.30;99.90
21772;DHT22;11047;47.904;8.110;2023-10-19T00:33:19;12.30;99.90
21772;DHT22;11047;47.904;8.110;2023-10-19T00:35:47;12.30;99.90
21772;DHT22;11047;47.904;8.110;2023-10-19T00:38:23;12.20;99.90
21772;DHT22;11047;47.904;8.110;2023-10-19T00:41:06;12.20;99.90
21772;DHT22;11047;47.904;8.110;2023-10-19T00:43:38;12.20;99.90
21772;DHT22;11047;47.904;8.110;2023-10-19T00:46:09;12.10;99.90
21772;DHT22;11047;47.904;8.110;2023-10-19T00:48:43;12.10;99.90
21772;DHT22;11047;47.904;8.110;2023-10-19T00:51:11;12.00;99.90
21772;DHT22;11047;47.904;8.110;2023-10-19T00:53:54;12.00;99.90
21772;DHT22;11047;47.904;8.110;2023-10-19T00:56:23;12.00;99.90
21772;DHT22;11047;47.904;8.110;2023-10-19T00:58:52;11.90;99.90
21772;DHT22;11047;47.904;8.110;2023-10-19T01:01:28;11.90;99.90
21772;DHT22;11047;47.904;8.110;2023-10-19T01:03:55;11.90;99.90
21772;DHT22;11047;47.904;8.110;2023-10-19T01:06:23;12.00;99.90
21772;DHT22;11047;47.904;8.110;2023-10-19T01:08:52;12.00;99.90
21772;DHT22;11047;47.904;8.110;2023-10-19T01:11:20;12.10;99.90
21772;DHT22;11047;47.904;8.110;2023-10-19T01:13:48;12.30;99.90
21772;DHT22;11047;47.904;8.110;2023-10-19T01:16:17;12.40;99.90
21772;DHT22;11047;47.904;8.110;2023-10-19T01:18:49;12.40;99.90
21772;DHT22;11047;47.904;8.110;2023-10-19T01:21:22;12.40;99.90
21772;DHT22;11047;47.904;8.110;2023-10-19T01:23:54;12.40;99.90
21772;DHT22;11047;47.904;8.110;2023-10-19T01:26:21;12.30;99.90
21772;DHT22;11047;47.904;8.110;2023-10-19T01:28:52;12.30;99.90
21772;DHT22;11047;47.904;8.110;2023-10-19T01:31:26;12.30;99.90
21772;DHT22;11047;47.904;8.110;2023-10-19T01:34:05;12.30;99.90
21772;DHT22;11047;47.904;8.110;2023-10-19T01:36:33;12.30;99.90
21772;DHT22;11047;47.904;8.110;2023-10-19T01:39:08;12.30;99.90
21772;DHT22;11047;47.904;8.110;2023-10-19T01:41:36;12.30;99.90
21772;DHT22;11047;47.904;8.110;2023-10-19T01:44:03;12.30;99.90
21772;DHT22;11047;47.904;8.110;2023-10-19T01:46:30;12.30;99.90
21772;DHT22;11047;47.904;8.110;2023-10-19T01:49:00;12.30;99.90
21772;DHT22;11047;47.904;8.110;2023-10-19T01:51:29;12.20;99.90
21772;DHT22;11047;47.904;8.110;2023-10-19T01:53:58;12.20;99.90
21772;DHT22;11047;47.904;8.110;2023-10-19T01:56:27;12.20;99.90
21772;DHT22;11047;47.904;8.110;2023-10-19T01:58:54;12.20;99.90
21772;DHT22;11047;47.904;8.110;2023-10-19T02:01:21;12.20;99.90
21772;DHT22;11047;47.904;8.110;2023-10-19T02:03:55;12.20;99.90
21772;DHT22;11047;47.904;8.110;2023-10-19T02:06:25;12.20;99.90
21772;DHT22;11047;47.904;8.110;2023-10-19T02:08:55;12.10;99.90
21772;DHT22;11047;47.904;8.110;2023-10-19T02:11:22;12.30;99.90
21772;DHT22;11047;47.904;8.110;2023-10-19T02:13:53;12.30;99.90
21772;DHT22;11047;47.904;8.110;2023-10-19T02:16:20;12.30;99.90
21772;DHT22;11047;47.904;8.110;2023-10-19T02:18:48;12.30;99.90
21772;DHT22;11047;47.904;8.110;2023-10-19T02:21:14;12.30;99.90
21772;DHT22;11047;47.904;8.110;2023-10-19T02:23:47;12.30;99.90
21772;DHT22;11047;47.904;8.110;2023-10-19T02:26:16;12.40;99.90
21772;DHT22;11047;47.904;8.110;2023-10-19T02:28:45;12.40;99.90
21772;DHT22;11047;47.904;8.110;2023-10-19T02:31:13;12.40;99.90
21772;DHT22;11047;47.904;8.110;2023-10-19T02:33:44;12.40;99.90
21772;DHT22;11047;47.904;8.110;2023-10-19T02:36:17;12.40;99.90
21772;DHT22;11047;47.904;8.110;2023-10-19T02:38:45;12.50;99.90
21772;DHT22;11047;47.904;8.110;2023-10-19T02:41:16;12.60;99.90
21772;DHT22;11047;47.904;8.110;2023-10-19T02:43:43;12.60;99.90
21772;DHT22;11047;47.904;8.110;2023-10-19T02:46:17;12.60;99.90
21772;DHT22;11047;47.904;8.110;2023-10-19T02:48:43;12.60;99.90
21772;DHT22;11047;47.904;8.110;2023-10-19T02:51:11;12.60;99.90
21772;DHT22;11047;47.904;8.110;2023-10-19T02:53:38;12.70;99.90
21772;DHT22;11047;47.904;8.110;2023-10-19T02:56:12;12.70;99.90
21772;DHT22;11047;47.904;8.110;2023-10-19T02:58:41;12.70;99.90
21772;DHT22;11047;47.904;8.110;2023-10-19T03:01:13;12.70;99.90
21772;DHT22;11047;47.904;8.110;2023-10-19T03:03:44;12.70;99.90
21772;DHT22;11047;47.904;8.110;2023-10-19T03:06:12;12.70;99.90
21772;DHT22;11047;47.904;8.110;2023-10-19T03:08:38;12.60;99.90
21772;DHT22;11047;47.904;8.110;2023-10-19T03:11:04;12.60;99.90
21772;DHT22;11047;47.904;8.110;2023-10-19T03:13:33;12.60;99.90
21772;DHT22;11047;47.904;8.110;2023-10-19T03:15:59;12.50;99.90
21772;DHT22;11047;47.904;8.110;2023-10-19T03:18:32;12.50;99.90
21772;DHT22;11047;47.904;8.110;2023-10-19T03:21:00;12.50;99.90
21772;DHT22;11047;47.904;8.110;2023-10-19T03:23:27;12.50;99.90
21772;DHT22;11047;47.904;8.110;2023-10-19T03:25:54;12.50;99.90
21772;DHT22;11047;47.904;8.110;2023-10-19T03:28:39;12.40;99.90
21772;DHT22;11047;47.904;8.110;2023-10-19T03:31:08;12.40;99.90
21772;DHT22;11047;47.904;8.110;2023-10-19T03:33:43;12.50;99.90
21772;DHT22;11047;47.904;8.110;2023-10-19T03:36:11;12.50;99.90
21772;DHT22;11047;47.904;8.110;2023-10-19T03:38:39;12.50;99.90
21772;DHT22;11047;47.904;8.110;2023-10-19T03:41:07;12.50;99.90
21772;DHT22;11047;47.904;8.110;2023-10-19T03:43:34;12.50;99.90
21772;DHT22;11047;47.904;8.110;2023-10-19T03:46:02;12.40;99.90
21772;DHT22;11047;47.904;8.110;2023-10-19T03:48:40;12.50;99.90
21772;DHT22;11047;47.904;8.110;2023-10-19T03:51:07;12.50;99.90
21772;DHT22;11047;47.904;8.110;2023-10-19T03:53:39;12.50;99.90
21772;DHT22;11047;47.904;8.110;2023-10-19T03:56:09;12.50;99.90
21772;DHT22;11047;47.904;8.110;2023-10-19T03:58:36;12.50;99.90
21772;DHT22;11047;47.904;8.110;2023-10-19T04:01:04;12.60;99.90
21772;DHT22;11047;47.904;8.110;2023-10-19T04:03:32;12.60;99.90
21772;DHT22;11047;47.904;8.110;2023-10-19T04:06:02;12.70;99.90
21772;DHT22;11047;47.904;8.110;2023-10-19T04:08:31;12.60;99.90
21772;DHT22;11047;47.904;8.110;2023-10-19T04:11:04;12.60;99.90
21772;DHT22;11047;47.904;8.110;2023-10-19T04:13:47;12.60;99.90
21772;DHT22;11047;47.904;8.110;2023-10-19T04:16:18;12.50;99.90
21772;DHT22;11047;47.904;8.110;2023-10-19T04:18:46;12.50;99.90
21772;DHT22;11047;47.904;8.110;2023-10-19T04:21:14;12.50;99.90
21772;DHT22;11047;47.904;8.110;2023-10-19T04:23:41;12.40;99.90
21772;DHT22;11047;47.904;8.110;2023-10-19T04:26:09;12.40;99.90
21772;DHT22;11047;47.904;8.110;2023-10-19T04:28:39;12.40;99.90
21772;DHT22;11047;47.904;8.110;2023-10-19T04:31:11;12.30;99.90
21772;DHT22;11047;47.904;8.110;2023-10-19T04:33:40;12.30;99.90
21772;DHT22;11047;47.904;8.110;2023-10-19T04:36:12;12.30;99.90
21772;DHT22;11047;47.904;8.110;2023-10-19T04:38:39;12.30;99.90
21772;DHT22;11047;47.904;8.110;2023-10-19T04:41:09;12.30;99.90
21772;DHT22;11047;47.904;8.110;2023-10-19T04:43:36;12.30;99.90
21772;DHT22;11047;47.904;8.110;2023-10-19T04:46:06;12.20;99.90
21772;DHT22;11047;47.904;8.110;2023-10-19T04:48:36;12.20;99.90
21772;DHT22;11047;47.904;8.110;2023-10-19T04:51:05;12.20;99.90
21772;DHT22;11047;47.904;8.110;2023-10-19T04:53:32;12.10;99.90
21772;DHT22;11047;47.904;8.110;2023-10-19T04:55:59;12.10;99.90
21772;DHT22;11047;47.904;8.110;2023-10-19T04:58:28;12.10;99.90
21772;DHT22;11047;47.904;8.110;2023-10-19T05:00:55;12.10;99.90
21772;DHT22;11047;47.904;8.110;2023-10-19T05:03:24;12.10;99.90
21772;DHT22;11047;47.904;8.110;2023-10-19T05:05:51;12.10;99.90
21772;DHT22;11047;47.904;8.110;2023-10-19T05:08:18;12.10;99.90
21772;DHT22;11047;47.904;8.110;2023-10-19T05:10:45;12.10;99.90
21772;DHT22;11047;47.904;8.110;2023-10-19T05:13:12;12.10;99.90
21772;DHT22;11047;47.904;8.110;2023-10-19T05:15:41;12.00;99.90
21772;DHT22;11047;47.904;8.110;2023-10-19T05:18:08;12.00;99.90
21772;DHT22;11047;47.904;8.110;2023-10-19T05:20:36;12.00;99.90
21772;DHT22;11047;47.904;8.110;2023-10-19T05:23:06;12.00;99.90
21772;DHT22;11047;47.904;8.110;2023-10-19T05:25:33;12.00;99.90
21772;DHT22;11047;47.904;8.110;2023-10-19T05:28:01;12.00;99.90
21772;DHT22;11047;47.904;8.110;2023-10-19T05:30:28;12.00;99.90
21772;DHT22;11047;47.904;8.110;2023-10-19T05:32:56;11.90;99.90
21772;DHT22;11047;47.904;8.110;2023-10-19T05:35:26;11.90;99.90
21772;DHT22;11047;47.904;8.110;2023-10-19T05:37:53;11.90;99.90
21772;DHT22;11047;47.904;8.110;2023-10-19T05:40:21;11.90;99.90
21772;DHT22;11047;47.904;8.110;2023-10-19T05:42:49;11.90;99.90
21772;DHT22;11047;47.904;8.110;2023-10-19T05:45:16;11.90;99.90
21772;DHT22;11047;47.904;8.110;2023-10-19T05:47:43;11.90;99.90
21772;DHT22;11047;47.904;8.110;2023-10-19T05:50:11;11.90;99.90
21772;DHT22;11047;47.904;8.110;2023-10-19T05:52:40;11.80;99.90
21772;DHT22;11047;47.904;8.110;2023-10-19T05:55:09;11.80;99.90
21772;DHT22;11047;47.904;8.110;2023-10-19T05:57:37;11.80;99.90
21772;DHT22;11047;47.904;8.110;2023-10-19T06:00:08;11.80;99.90
21772;DHT22;11047;47.904;8.110;2023-10-19T06:02:40;11.80;99.90
21772;DHT22;11047;47.904;8.110;2023-10-19T06:05:10;11.80;99.90
21772;DHT22;11047;47.904;8.110;2023-10-19T06:07:38;11.80;99.90
21772;DHT22;11047;47.904;8.110;2023-10-19T06:10:05;11.70;99.90
21772;DHT22;11047;47.904;8.110;2023-10-19T06:12:33;11.60;99.90
21772;DHT22;11047;47.904;8.110;2023-10-19T06:15:00;11.60;99.90
21772;DHT22;11047;47.904;8.110;2023-10-19T06:17:27;11.50;99.90
21772;DHT22;11047;47.904;8.110;2023-10-19T06:19:55;11.50;99.90
21772;DHT22;11047;47.904;8.110;2023-10-19T06:22:23;11.50;99.90
21772;DHT22;11047;47.904;8.110;2023-10-19T06:24:50;11.50;99.90
21772;DHT22;11047;47.904;8.110;2023-10-19T06:27:17;11.60;99.90
21772;DHT22;11047;47.904;8.110;2023-10-19T06:29:44;11.50;99.90
21772;DHT22;11047;47.904;8.110;2023-10-19T06:32:11;11.60;99.90
21772;DHT22;11047;47.904;8.110;2023-10-19T06:34:40;11.60;99.90
21772;DHT22;11047;47.904;8.110;2023-10-19T06:37:07;11.60;99.90
21772;DHT22;11047;47.904;8.110;2023-10-19T06:39:37;11.60;99.90
21772;DHT22;11047;47.904;8.110;2023-10-19T06:42:08;11.60;99.90
21772;DHT22;11047;47.904;8.110;2023-10-19T06:44:40;11.50;99.90
21772;DHT22;11047;47.904;8.110;2023-10-19T06:47:08;11.50;99.90
21772;DHT22;11047;47.904;8.110;2023-10-19T06:49:36;11.60;99.90
21772;DHT22;11047;47.904;8.110;2023-10-19T06:52:03;11.60;99.90
21772;DHT22;11047;47.904;8.110;2023-10-19T06:54:31;11.60;99.90
21772;DHT22;11047;47.904;8.110;2023-10-19T06:57:00;11.60;99.90
21772;DHT22;11047;47.904;8.110;2023-10-19T06:59:29;11.70;99.90
21772;DHT22;11047;47.904;8.110;2023-10-19T07:01:58;11.70;99.90
21772;DHT22;11047;47.904;8.110;2023-10-19T07:04:27;11.70;99.90
21772;DHT22;11047;47.904;8.110;2023-10-19T07:06:54;11.80;99.90
21772;DHT22;11047;47.904;8.110;2023-10-19T07:09:21;11.80;99.90
21772;DHT22;11047;47.904;8.110;2023-10-19T07:11:48;11.90;99.90
21772;DHT22;11047;47.904;8.110;2023-10-19T07:14:20;12.10;99.90
21772;DHT22;11047;47.904;8.110;2023-10-19T07:16:48;11.90;99.90
21772;DHT22;11047;47.904;8.110;2023-10-19T07:19:15;11.90;99.90
21772;DHT22;11047;47.904;8.110;2023-10-19T07:21:42;12.00;99.90
21772;DHT22;11047;47.904;8.110;2023-10-19T07:24:14;12.00;99.90
21772;DHT22;11047;47.904;8.110;2023-10-19T07:26:44;12.00;99.90
21772;DHT22;11047;47.904;8.110;2023-10-19T07:29:20;12.10;99.90
21772;DHT22;11047;47.904;8.110;2023-10-19T07:31:47;12.10;99.90
21772;DHT22;11047;47.904;8.110;2023-10-19T07:34:14;12.10;99.90
21772;DHT22;11047;47.904;8.110;2023-10-19T07:36:41;12.20;99.90
21772;DHT22;11047;47.904;8.110;2023-10-19T07:39:09;12.20;99.90
21772;DHT22;11047;47.904;8.110;2023-10-19T07:41:39;12.20;99.90
21772;DHT22;11047;47.904;8.110;2023-10-19T07:44:06;12.20;99.90
21772;DHT22;11047;47.904;8.110;2023-10-19T07:46:35;12.20;99.90
21772;DHT22;11047;47.904;8.110;2023-10-19T07:49:02;12.20;99.90
21772;DHT22;11047;47.904;8.110;2023-10-19T07:51:29;12.30;99.90
21772;DHT22;11047;47.904;8.110;2023-10-19T07:53:56;12.30;99.90
21772;DHT22;11047;47.904;8.110;2023-10-19T07:56:23;12.30;99.90
21772;DHT22;11047;47.904;8.110;2023-10-19T07:58:50;12.40;99.90
21772;DHT22;11047;47.904;8.110;2023-10-19T08:01:17;12.40;99.90
21772;DHT22;11047;47.904;8.110;2023-10-19T08:03:45;12.40;99.90
21772;DHT22;11047;47.904;8.110;2023-10-19T08:06:12;12.40;99.90
21772;DHT22;11047;47.904;8.110;2023-10-19T08:08:39;12.50;99.90
21772;DHT22;11047;47.904;8.110;2023-10-19T08:11:08;12.50;99.90
21772;DHT22;11047;47.904;8.110;2023-10-19T08:13:35;12.50;99.90
21772;DHT22;11047;47.904;8.110;2023-10-19T08:16:02;12.50;99.90
21772;DHT22;11047;47.904;8.110;2023-10-19T08:18:29;12.40;99.90
21772;DHT22;11047;47.904;8.110;2023-10-19T08:20:58;12.50;99.90
21772;DHT22;11047;47.904;8.110;2023-10-19T08:23:25;12.50;99.90
21772;DHT22;11047;47.904;8.110;2023-10-19T08:25:53;12.50;99.90
21772;DHT22;11047;47.904;8.110;2023-10-19T08:28:20;12.50;99.90
21772;DHT22;11047;47.904;8.110;2023-10-19T08:30:48;12.50;99.90
21772;DHT22;11047;47.904;8.110;2023-10-19T08:33:23;12.50;99.90
21772;DHT22;11047;47.904;8.110;2023-10-19T08:35:51;12.60;99.90
21772;DHT22;11047;47.904;8.110;2023-10-19T08:38:21;12.60;99.90
21772;DHT22;11047;47.904;8.110;2023-10-19T08:40:49;12.60;99.90
21772;DHT22;11047;47.904;8.110;2023-10-19T08:43:17;12.60;99.90
21772;DHT22;11047;47.904;8.110;2023-10-19T08:45:45;12.60;99.90
21772;DHT22;11047;47.904;8.110;2023-10-19T08:48:12;12.70;99.90
21772;DHT22;11047;47.904;8.110;2023-10-19T08:50:39;12.70;99.90
21772;DHT22;11047;47.904;8.110;2023-10-19T08:53:07;12.70;99.90
21772;DHT22;11047;47.904;8.110;2023-10-19T08:55:36;12.80;99.90
21772;DHT22;11047;47.904;8.110;2023-10-19T08:58:03;12.80;99.90
21772;DHT22;11047;47.904;8.110;2023-10-19T09:00:43;12.70;99.90
21772;DHT22;11047;47.904;8.110;2023-10-19T09:03:13;12.80;99.90
21772;DHT22;11047;47.904;8.110;2023-10-19T09:05:42;12.80;99.90
21772;DHT22;11047;47.904;8.110;2023-10-19T09:08:14;12.80;99.90
21772;DHT22;11047;47.904;8.110;2023-10-19T09:10:43;12.90;99.90
21772;DHT22;11047;47.904;8.110;2023-10-19T09:13:12;12.90;99.90
21772;DHT22;11047;47.904;8.110;2023-10-19T09:15:41;12.90;99.90
21772;DHT22;11047;47.904;8.110;2023-10-19T09:18:15;12.90;99.90
21772;DHT22;11047;47.904;8.110;2023-10-19T09:20:43;13.00;99.90
21772;DHT22;11047;47.904;8.110;2023-10-19T09:23:21;13.00;99.90
21772;DHT22;11047;47.904;8.110;2023-10-19T09:25:51;13.00;99.90
21772;DHT22;11047;47.904;8.110;2023-10-19T09:28:18;13.00;99.90
21772;DHT22;11047;47.904;8.110;2023-10-19T09:30:46;13.00;99.90
21772;DHT22;11047;47.904;8.110;2023-10-19T09:33:15;13.00;99.90
21772;DHT22;11047;47.904;8.110;2023-10-19T09:35:45;13.00;99.90
21772;DHT22;11047;47.904;8.110;2023-10-19T09:38:13;13.00;99.90
21772;DHT22;11047;47.904;8.110;2023-10-19T09:40:40;13.00;99.90
21772;DHT22;11047;47.904;8.110;2023-10-19T09:43:15;13.00;99.90
21772;DHT22;11047;47.904;8.110;2023-10-19T09:45:48;12.90;99.90
21772;DHT22;11047;47.904;8.110;2023-10-19T09:48:18;13.00;99.90
21772;DHT22;11047;47.904;8.110;2023-10-19T09:50:52;13.00;99.90
21772;DHT22;11047;47.904;8.110;2023-10-19T09:53:22;13.10;99.90
21772;DHT22;11047;47.904;8.110;2023-10-19T09:55:51;13.20;99.90
21772;DHT22;11047;47.904;8.110;2023-10-19T09:58:26;13.30;99.90
21772;DHT22;11047;47.904;8.110;2023-10-19T10:00:54;13.40;99.90
21772;DHT22;11047;47.904;8.110;2023-10-19T10:03:42;13.60;99.90
21772;DHT22;11047;47.904;8.110;2023-10-19T10:06:09;13.80;99.90
21772;DHT22;11047;47.904;8.110;2023-10-19T10:08:38;13.90;99.90
21772;DHT22;11047;47.904;8.110;2023-10-19T10:11:19;14.00;99.90
21772;DHT22;11047;47.904;8.110;2023-10-19T10:13:49;14.00;99.90
21772;DHT22;11047;47.904;8.110;2023-10-19T10:16:19;14.10;99.90
21772;DHT22;11047;47.904;8.110;2023-10-19T10:18:47;14.20;99.90
21772;DHT22;11047;47.904;8.110;2023-10-19T10:21:17;14.20;99.90
21772;DHT22;11047;47.904;8.110;2023-10-19T10:23:47;14.20;99.90
21772;DHT22;11047;47.904;8.110;2023-10-19T10:26:15;14.20;99.90
21772;DHT22;11047;47.904;8.110;2023-10-19T10:28:47;14.20;99.90
21772;DHT22;11047;47.904;8.110;2023-10-19T10:31:19;14.20;99.90
21772;DHT22;11047;47.904;8.110;2023-10-19T10:33:48;14.20;99.90
21772;DHT22;11047;47.904;8.110;2023-10-19T10:36:16;14.30;99.90
21772;DHT22;11047;47.904;8.110;2023-10-19T10:38:44;14.30;99.90
21772;DHT22;11047;47.904;8.110;2023-10-19T10:41:11;14.50;99.90
21772;DHT22;11047;47.904;8.110;2023-10-19T10:43:54;14.70;99.90
21772;DHT22;11047;47.904;8.110;2023-10-19T10:46:22;14.90;99.90
21772;DHT22;11047;47.904;8.110;2023-10-19T10:48:50;15.10;99.90
21772;DHT22;11047;47.904;8.110;2023-10-19T10:51:21;15.40;99.90
21772;DHT22;11047;47.904;8.110;2023-10-19T10:53:49;15.60;99.90
21772;DHT22;11047;47.904;8.110;2023-10-19T10:56:17;15.60;99.90
21772;DHT22;11047;47.904;8.110;2023-10-19T10:58:44;15.60;99.90
21772;DHT22;11047;47.904;8.110;2023-10-19T11:01:13;15.60;99.90
21772;DHT22;11047;47.904;8.110;2023-10-19T11:03:40;15.60;99.90
21772;DHT22;11047;47.904;8.110;2023-10-19T11:06:08;15.50;99.90
21772;DHT22;11047;47.904;8.110;2023-10-19T11:08:36;15.40;99.90
21772;DHT22;11047;47.904;8.110;2023-10-19T11:11:04;15.20;99.90
21772;DHT22;11047;47.904;8.110;2023-10-19T11:13:32;15.20;99.90
21772;DHT22;11047;47.904;8.110;2023-10-19T11:16:04;15.20;99.90
21772;DHT22;11047;47.904;8.110;2023-10-19T11:18:33;15.10;99.90
21772;DHT22;11047;47.904;8.110;2023-10-19T11:21:05;15.10;99.90
21772;DHT22;11047;47.904;8.110;2023-10-19T11:23:39;15.10;99.90
21772;DHT22;11047;47.904;8.110;2023-10-19T11:26:06;15.00;99.90
21772;DHT22;11047;47.904;8.110;2023-10-19T11:28:34;15.00;99.90
21772;DHT22;11047;47.904;8.110;2023-10-19T11:31:11;14.90;99.90
21772;DHT22;11047;47.904;8.110;2023-10-19T11:33:41;14.90;99.90
21772;DHT22;11047;47.904;8.110;2023-10-19T11:36:08;14.90;99.90
21772;DHT22;11047;47.904;8.110;2023-10-19T11:38:39;15.00;99.90
21772;DHT22;11047;47.904;8.110;2023-10-19T11:41:06;14.90;99.90
21772;DHT22;11047;47.904;8.110;2023-10-19T11:43:33;15.00;99.90
21772;DHT22;11047;47.904;8.110;2023-10-19T11:46:01;15.00;99.90
21772;DHT22;11047;47.904;8.110;2023-10-19T11:48:28;15.00;99.90
21772;DHT22;11047;47.904;8.110;2023-10-19T11:50:56;15.00;99.90
21772;DHT22;11047;47.904;8.110;2023-10-19T11:53:23;14.90;99.90
21772;DHT22;11047;47.904;8.110;2023-10-19T11:55:50;14.80;99.90
21772;DHT22;11047;47.904;8.110;2023-10-19T11:58:17;14.70;99.90
21772;DHT22;11047;47.904;8.110;2023-10-19T12:00:45;14.70;99.90
21772;DHT22;11047;47.904;8.110;2023-10-19T12:03:12;14.60;99.90
21772;DHT22;11047;47.904;8.110;2023-10-19T12:05:39;14.60;99.90
21772;DHT22;11047;47.904;8.110;2023-10-19T12:08:09;14.60;99.90
21772;DHT22;11047;47.904;8.110;2023-10-19T12:10:36;14.60;99.90
21772;DHT22;11047;47.904;8.110;2023-10-19T12:13:04;14.40;99.90
21772;DHT22;11047;47.904;8.110;2023-10-19T12:15:33;14.40;99.90
21772;DHT22;11047;47.904;8.110;2023-10-19T12:18:00;14.40;99.90
21772;DHT22;11047;47.904;8.110;2023-10-19T12:20:28;14.30;99.90
21772;DHT22;11047;47.904;8.110;2023-10-19T12:22:56;14.30;99.90
21772;DHT22;11047;47.904;8.110;2023-10-19T12:25:25;14.30;99.90
21772;DHT22;11047;47.904;8.110;2023-10-19T12:27:58;14.30;99.90
21772;DHT22;11047;47.904;8.110;2023-10-19T12:30:25;14.30;99.90
21772;DHT22;11047;47.904;8.110;2023-10-19T12:33:00;14.30;99.90
21772;DHT22;11047;47.904;8.110;2023-10-19T12:35:27;14.30;99.90
21772;DHT22;11047;47.904;8.110;2023-10-19T12:38:10;14.40;99.90
21772;DHT22;11047;47.904;8.110;2023-10-19T12:40:43;14.30;99.90
21772;DHT22;11047;47.904;8.110;2023-10-19T12:43:12;14.40;99.90
21772;DHT22;11047;47.904;8.110;2023-10-19T12:45:39;14.40;99.90
21772;DHT22;11047;47.904;8.110;2023-10-19T12:48:07;14.40;99.90
21772;DHT22;11047;47.904;8.110;2023-10-19T12:50:37;14.40;99.90
21772;DHT22;11047;47.904;8.110;2023-10-19T12:53:04;14.40;99.90
21772;DHT22;11047;47.904;8.110;2023-10-19T12:55:31;14.20;99.90
21772;DHT22;11047;47.904;8.110;2023-10-19T12:58:00;14.20;99.90
21772;DHT22;11047;47.904;8.110;2023-10-19T13:00:32;14.10;99.90
21772;DHT22;11047;47.904;8.110;2023-10-19T13:03:07;14.10;99.90
21772;DHT22;11047;47.904;8.110;2023-10-19T13:05:35;14.00;99.90
21772;DHT22;11047;47.904;8.110;2023-10-19T13:08:04;14.00;99.90
21772;DHT22;11047;47.904;8.110;2023-10-19T13:10:33;14.00;99.90
21772;DHT22;11047;47.904;8.110;2023-10-19T13:13:04;14.00;99.90
21772;DHT22;11047;47.904;8.110;2023-10-19T13:15:32;14.00;99.90
21772;DHT22;11047;47.904;8.110;2023-10-19T13:18:00;14.00;99.90
21772;DHT22;11047;47.904;8.110;2023-10-19T13:20:27;13.90;99.90
21772;DHT22;11047;47.904;8.110;2023-10-19T13:22:59;14.00;99.90
21772;DHT22;11047;47.904;8.110;2023-10-19T13:25:26;14.00;99.90
21772;DHT22;11047;47.904;8.110;2023-10-19T13:28:09;14.00;99.90
21772;DHT22;11047;47.904;8.110;2023-10-19T13:30:37;14.10;99.90
21772;DHT22;11047;47.904;8.110;2023-10-19T13:33:04;14.10;99.90
21772;DHT22;11047;47.904;8.110;2023-10-19T13:35:32;14.10;99.90
21772;DHT22;11047;47.904;8.110;2023-10-19T13:37:59;14.10;99.90
21772;DHT22;11047;47.904;8.110;2023-10-19T13:40:26;14.10;99.90
21772;DHT22;11047;47.904;8.110;2023-10-19T13:42:55;14.10;99.90
21772;DHT22;11047;47.904;8.110;2023-10-19T13:45:24;14.10;99.90
21772;DHT22;11047;47.904;8.110;2023-10-19T13:47:51;14.10;99.90
21772;DHT22;11047;47.904;8.110;2023-10-19T13:50:21;14.10;99.90
21772;DHT22;11047;47.904;8.110;2023-10-19T13:52:49;14.10;99.90
21772;DHT22;11047;47.904;8.110;2023-10-19T13:55:17;14.10;99.90
21772;DHT22;11047;47.904;8.110;2023-10-19T13:57:46;14.10;99.90
21772;DHT22;11047;47.904;8.110;2023-10-19T14:00:14;14.10;99.90
21772;DHT22;11047;47.904;8.110;2023-10-19T14:02:50;14.10;99.90
21772;DHT22;11047;47.904;8.110;2023-10-19T14:05:18;14.10;99.90
21772;DHT22;11047;47.904;8.110;2023-10-19T14:07:45;14.20;99.90
21772;DHT22;11047;47.904;8.110;2023-10-19T14:10:13;14.30;99.90
21772;DHT22;11047;47.904;8.110;2023-10-19T14:12:42;14.20;99.90
21772;DHT22;11047;47.904;8.110;2023-10-19T14:15:14;14.20;99.90
21772;DHT22;11047;47.904;8.110;2023-10-19T14:17:43;14.20;99.90
21772;DHT22;11047;47.904;8.110;2023-10-19T14:20:13;14.20;99.90
21772;DHT22;11047;47.904;8.110;2023-10-19T14:22:41;14.20;99.90
21772;DHT22;11047;47.904;8.110;2023-10-19T14:25:08;14.10;99.90
21772;DHT22;11047;47.904;8.110;2023-10-19T14:27:41;14.00;99.90
21772;DHT22;11047;47.904;8.110;2023-10-19T14:30:10;14.10;99.90
21772;DHT22;11047;47.904;8.110;2023-10-19T14:32:39;14.10;99.90
21772;DHT22;11047;47.904;8.110;2023-10-19T14:35:07;14.10;99.90
21772;DHT22;11047;47.904;8.110;2023-10-19T14:37:39;14.20;99.90
21772;DHT22;11047;47.904;8.110;2023-10-19T14:40:08;14.10;99.90
21772;DHT22;11047;47.904;8.110;2023-10-19T14:42:36;14.00;99.90
21772;DHT22;11047;47.904;8.110;2023-10-19T14:45:05;14.10;99.90
21772;DHT22;11047;47.904;8.110;2023-10-19T14:47:35;14.10;99.90
21772;DHT22;11047;47.904;8.110;2023-10-19T14:50:03;14.20;99.90
21772;DHT22;11047;47.904;8.110;2023-10-19T14:52:30;14.20;99.90
21772;DHT22;11047;47.904;8.110;2023-10-19T14:54:58;14.10;99.90
21772;DHT22;11047;47.904;8.110;2023-10-19T14:57:26;14.20;99.90
21772;DHT22;11047;47.904;8.110;2023-10-19T14:59:53;14.10;99.90
21772;DHT22;11047;47.904;8.110;2023-10-19T15:02:20;14.10;99.90
21772;DHT22;11047;47.904;8.110;2023-10-19T15:04:49;14.00;99.90
21772;DHT22;11047;47.904;8.110;2023-10-19T15:07:17;14.00;99.90
21772;DHT22;11047;47.904;8.110;2023-10-19T15:09:44;14.00;99.90
21772;DHT22;11047;47.904;8.110;2023-10-19T15:12:14;14.10;99.90
21772;DHT22;11047;47.904;8.110;2023-10-19T15:14:41;14.00;99.90
21772;DHT22;11047;47.904;8.110;2023-10-19T15:17:09;14.00;99.90
21772;DHT22;11047;47.904;8.110;2023-10-19T15:19:37;14.00;99.90
21772;DHT22;11047;47.904;8.110;2023-10-19T15:22:04;13.90;99.90
21772;DHT22;11047;47.904;8.110;2023-10-19T15:24:31;13.90;99.90
21772;DHT22;11047;47.904;8.110;2023-10-19T15:26:58;13.90;99.90
21772;DHT22;11047;47.904;8.110;2023-10-19T15:29:27;13.80;99.90
21772;DHT22;11047;47.904;8.110;2023-10-19T15:31:54;13.80;99.90
21772;DHT22;11047;47.904;8.110;2023-10-19T15:34:22;13.80;99.90
21772;DHT22;11047;47.904;8.110;2023-10-19T15:36:49;13.80;99.90
21772;DHT22;11047;47.904;8.110;2023-10-19T15:39:16;13.80;99.90
21772;DHT22;11047;47.904;8.110;2023-10-19T15:41:43;13.70;99.90